sensor_id;sensor_type;location;lat;lon;timestamp;pressure;altitude;pressure_sealevel;temperature;humidity
67015;BME280;1033;52.560;13.374;2023-04-26T00:01:02;100802.56;;;4.30;75.57
67015;BME280;1033;52.560;13.374;2023-04-26T00:03:32;100799.19;;;4.28;75.66
67015;BME280;1033;52.560;13.374;2023-04-26T00:06:03;100810.75;;;4.28;75.99
67015;BME280;1033;52.560;13.374;2023-04-26T00:08:35;100800.88;;;4.29;75.88
67015;BME280;1033;52.560;13.374;2023-04-26T00:11:05;100802.22;;;4.25;76.31
67015;BME280;1033;52.560;13.374;2023-04-26T00:13:34;100801.38;;;4.24;75.90
67015;BME280;1033;52.560;13.374;2023-04-26T00:16:04;100797.16;;;4.22;76.24
67015;BME280;1033;52.560;13.374;2023-04-26T00:18:33;100803.22;;;4.24;76.38
67015;BME280;1033;52.560;13.374;2023-04-26T00:21:03;100803.53;;;4.21;76.18
67015;BME280;1033;52.560;13.374;2023-04-26T00:23:32;100805.88;;;4.16;76.43
67015;BME280;1033;52.560;13.374;2023-04-26T00:26:03;100805.81;;;4.08;76.90
67015;BME280;1033;52.560;13.374;2023-04-26T00:28:32;100806.34;;;4.11;77.14
67015;BME280;1033;52.560;13.374;2023-04-26T00:31:02;100801.78;;;4.04;77.10
67015;BME280;1033;52.560;13.374;2023-04-26T00:33:31;100813.00;;;3.99;77.83
67015;BME280;1033;52.560;13.374;2023-04-26T00:35:59;100815.47;;;3.92;78.56
67015;BME280;1033;52.560;13.374;2023-04-26T00:38:30;100808.94;;;3.87;78.96
67015;BME280;1033;52.560;13.374;2023-04-26T00:40:59;100806.78;;;3.90;78.29
67015;BME280;1033;52.560;13.374;2023-04-26T00:43:28;100817.00;;;3.95;78.30
67015;BME280;1033;52.560;13.374;2023-04-26T00:45:57;100806.44;;;3.93;78.69
67015;BME280;1033;52.560;13.374;2023-04-26T00:48:26;100810.78;;;3.86;79.24
67015;BME280;1033;52.560;13.374;2023-04-26T00:50:55;100813.94;;;3.82;79.50
67015;BME280;1033;52.560;13.374;2023-04-26T00:53:24;100807.41;;;3.84;79.03
67015;BME280;1033;52.560;13.374;2023-04-26T00:55:56;100804.72;;;3.76;79.62
67015;BME280;1033;52.560;13.374;2023-04-26T00:58:25;100812.88;;;3.75;80.04
67015;BME280;1033;52.560;13.374;2023-04-26T01:00:54;100808.72;;;3.72;79.84
67015;BME280;1033;52.560;13.374;2023-04-26T01:03:23;100810.69;;;3.70;79.91
67015;BME280;1033;52.560;13.374;2023-04-26T01:05:53;100818.03;;;3.68;80.18
67015;BME280;1033;52.560;13.374;2023-04-26T01:08:23;100823.38;;;3.68;80.49
67015;BME280;1033;52.560;13.374;2023-04-26T01:10:52;100816.06;;;3.70;80.20
67015;BME280;1033;52.560;13.374;2023-04-26T01:13:24;100814.00;;;3.64;80.56
67015;BME280;1033;52.560;13.374;2023-04-26T01:15:54;100812.03;;;3.66;81.24
67015;BME280;1033;52.560;13.374;2023-04-26T01:18:23;100824.69;;;3.64;80.94
67015;BME280;1033;52.560;13.374;2023-04-26T01:20:52;100823.03;;;3.63;81.10
67015;BME280;1033;52.560;13.374;2023-04-26T01:23:24;100820.34;;;3.63;81.20
67015;BME280;1033;52.560;13.374;2023-04-26T01:25:53;100824.53;;;3.58;81.39
67015;BME280;1033;52.560;13.374;2023-04-26T01:28:23;100821.66;;;3.59;81.53
67015;BME280;1033;52.560;13.374;2023-04-26T01:30:52;100818.63;;;3.54;81.72
67015;BME280;1033;52.560;13.374;2023-04-26T01:33:21;100825.00;;;3.53;81.73
67015;BME280;1033;52.560;13.374;2023-04-26T01:35:51;100824.63;;;3.48;81.78
67015;BME280;1033;52.560;13.374;2023-04-26T01:38:23;100835.00;;;3.51;82.18
67015;BME280;1033;52.560;13.374;2023-04-26T01:40:54;100841.34;;;3.50;82.22
67015;BME280;1033;52.560;13.374;2023-04-26T01:43:23;100846.03;;;3.48;82.69
67015;BME280;1033;52.560;13.374;2023-04-26T01:45:52;100842.66;;;3.46;82.77
67015;BME280;1033;52.560;13.374;2023-04-26T01:48:30;100838.94;;;3.39;82.92
67015;BME280;1033;52.560;13.374;2023-04-26T01:51:00;100842.63;;;3.38;83.46
67015;BME280;1033;52.560;13.374;2023-04-26T01:53:31;100832.91;;;3.37;83.75
67015;BME280;1033;52.560;13.374;2023-04-26T01:56:00;100847.75;;;3.31;83.84
67015;BME280;1033;52.560;13.374;2023-04-26T01:58:30;100845.44;;;3.36;83.44
67015;BME280;1033;52.560;13.374;2023-04-26T02:01:05;100835.06;;;3.33;83.79
67015;BME280;1033;52.560;13.374;2023-04-26T02:03:35;100837.88;;;3.32;84.51
67015;BME280;1033;52.560;13.374;2023-04-26T02:09:46;100839.22;;;3.28;84.69
67015;BME280;1033;52.560;13.374;2023-04-26T02:12:15;100835.38;;;3.30;84.85
67015;BME280;1033;52.560;13.374;2023-04-26T02:14:44;100837.38;;;3.28;85.05
67015;BME280;1033;52.560;13.374;2023-04-26T02:17:13;100836.53;;;3.28;84.88
67015;BME280;1033;52.560;13.374;2023-04-26T02:19:42;100846.72;;;3.24;85.40
67015;BME280;1033;52.560;13.374;2023-04-26T02:22:12;100841.38;;;3.24;85.65
67015;BME280;1033;52.560;13.374;2023-04-26T02:24:41;100842.50;;;3.22;85.78
67015;BME280;1033;52.560;13.374;2023-04-26T02:27:12;100845.03;;;3.23;85.66
67015;BME280;1033;52.560;13.374;2023-04-26T02:29:41;100843.66;;;3.19;85.69
67015;BME280;1033;52.560;13.374;2023-04-26T02:32:12;100837.25;;;3.12;85.90
67015;BME280;1033;52.560;13.374;2023-04-26T02:34:43;100833.25;;;3.16;85.90
67015;BME280;1033;52.560;13.374;2023-04-26T02:37:12;100833.34;;;3.06;86.47
67015;BME280;1033;52.560;13.374;2023-04-26T02:39:41;100838.69;;;3.06;86.66
67015;BME280;1033;52.560;13.374;2023-04-26T02:42:11;100834.34;;;3.05;86.77
67015;BME280;1033;52.560;13.374;2023-04-26T02:44:41;100829.31;;;3.02;86.87
67015;BME280;1033;52.560;13.374;2023-04-26T02:47:10;100834.81;;;3.01;87.52
67015;BME280;1033;52.560;13.374;2023-04-26T02:49:39;100832.78;;;2.95;87.70
67015;BME280;1033;52.560;13.374;2023-04-26T02:52:09;100834.28;;;2.97;87.51
67015;BME280;1033;52.560;13.374;2023-04-26T02:54:38;100834.97;;;2.99;87.53
67015;BME280;1033;52.560;13.374;2023-04-26T02:57:07;100830.31;;;3.01;87.44
67015;BME280;1033;52.560;13.374;2023-04-26T02:59:37;100836.25;;;2.95;87.90
67015;BME280;1033;52.560;13.374;2023-04-26T03:02:06;100836.25;;;2.95;87.61
67015;BME280;1033;52.560;13.374;2023-04-26T03:04:35;100835.28;;;2.96;87.97
67015;BME280;1033;52.560;13.374;2023-04-26T03:07:05;100834.59;;;2.94;88.09
67015;BME280;1033;52.560;13.374;2023-04-26T03:09:35;100835.91;;;2.90;88.23
67015;BME280;1033;52.560;13.374;2023-04-26T03:12:09;100832.69;;;2.87;88.48
67015;BME280;1033;52.560;13.374;2023-04-26T03:14:40;100834.50;;;2.86;88.54
67015;BME280;1033;52.560;13.374;2023-04-26T03:17:10;100837.81;;;2.80;89.12
67015;BME280;1033;52.560;13.374;2023-04-26T03:19:39;100844.31;;;2.78;89.70
67015;BME280;1033;52.560;13.374;2023-04-26T03:22:08;100841.16;;;2.82;89.17
67015;BME280;1033;52.560;13.374;2023-04-26T03:24:37;100845.84;;;2.80;89.32
67015;BME280;1033;52.560;13.374;2023-04-26T03:27:07;100840.41;;;2.72;89.84
67015;BME280;1033;52.560;13.374;2023-04-26T03:29:36;100843.16;;;2.80;89.40
67015;BME280;1033;52.560;13.374;2023-04-26T03:32:07;100844.44;;;2.76;89.58
67015;BME280;1033;52.560;13.374;2023-04-26T03:34:36;100849.78;;;2.76;90.03
67015;BME280;1033;52.560;13.374;2023-04-26T03:37:05;100852.19;;;2.79;90.21
67015;BME280;1033;52.560;13.374;2023-04-26T03:39:35;100854.47;;;2.74;90.43
67015;BME280;1033;52.560;13.374;2023-04-26T03:42:04;100857.19;;;2.82;90.33
67015;BME280;1033;52.560;13.374;2023-04-26T03:44:35;100852.47;;;2.76;90.73
67015;BME280;1033;52.560;13.374;2023-04-26T03:47:04;100854.84;;;2.79;90.29
67015;BME280;1033;52.560;13.374;2023-04-26T03:49:34;100854.91;;;2.87;90.18
67015;BME280;1033;52.560;13.374;2023-04-26T03:52:03;100856.59;;;2.88;89.97
67015;BME280;1033;52.560;13.374;2023-04-26T03:54:33;100858.81;;;2.93;89.81
67015;BME280;1033;52.560;13.374;2023-04-26T03:57:02;100861.34;;;2.94;89.67
67015;BME280;1033;52.560;13.374;2023-04-26T03:59:33;100863.84;;;2.96;89.49
67015;BME280;1033;52.560;13.374;2023-04-26T04:02:03;100862.38;;;3.01;89.58
67015;BME280;1033;52.560;13.374;2023-04-26T04:04:34;100868.06;;;2.98;89.43
67015;BME280;1033;52.560;13.374;2023-04-26T04:07:04;100861.25;;;3.04;89.80
67015;BME280;1033;52.560;13.374;2023-04-26T04:09:33;100863.47;;;3.09;89.23
67015;BME280;1033;52.560;13.374;2023-04-26T04:12:03;100862.28;;;3.11;88.71
67015;BME280;1033;52.560;13.374;2023-04-26T04:14:32;100870.03;;;3.40;88.73
67015;BME280;1033;52.560;13.374;2023-04-26T04:17:01;100869.13;;;3.83;85.51
67015;BME280;1033;52.560;13.374;2023-04-26T04:19:30;100865.34;;;3.93;83.88
67015;BME280;1033;52.560;13.374;2023-04-26T04:22:01;100873.78;;;4.57;81.78
67015;BME280;1033;52.560;13.374;2023-04-26T04:24:30;100867.31;;;4.92;79.58
67015;BME280;1033;52.560;13.374;2023-04-26T04:27:01;100871.34;;;5.36;77.48
67015;BME280;1033;52.560;13.374;2023-04-26T04:29:31;100871.09;;;5.94;74.71
67015;BME280;1033;52.560;13.374;2023-04-26T04:32:00;100874.31;;;5.90;74.23
67015;BME280;1033;52.560;13.374;2023-04-26T04:34:33;100881.59;;;6.12;72.98
67015;BME280;1033;52.560;13.374;2023-04-26T04:37:05;100883.63;;;6.80;70.63
67015;BME280;1033;52.560;13.374;2023-04-26T04:39:34;100884.75;;;6.24;71.17
67015;BME280;1033;52.560;13.374;2023-04-26T04:42:04;100882.31;;;5.82;73.02
67015;BME280;1033;52.560;13.374;2023-04-26T04:44:33;100881.34;;;6.30;70.83
67015;BME280;1033;52.560;13.374;2023-04-26T04:47:02;100882.31;;;5.98;71.22
67015;BME280;1033;52.560;13.374;2023-04-26T04:49:33;100892.75;;;6.71;69.64
67015;BME280;1033;52.560;13.374;2023-04-26T04:52:05;100894.75;;;6.69;68.94
67015;BME280;1033;52.560;13.374;2023-04-26T04:54:34;100890.72;;;6.42;69.44
67015;BME280;1033;52.560;13.374;2023-04-26T04:57:04;100884.59;;;6.56;68.86
67015;BME280;1033;52.560;13.374;2023-04-26T04:59:33;100892.97;;;6.92;68.01
67015;BME280;1033;52.560;13.374;2023-04-26T05:02:03;100896.00;;;7.34;66.30
67015;BME280;1033;52.560;13.374;2023-04-26T05:04:32;100904.56;;;7.15;65.62
67015;BME280;1033;52.560;13.374;2023-04-26T05:07:02;100898.69;;;6.89;67.37
67015;BME280;1033;52.560;13.374;2023-04-26T05:09:35;100902.97;;;6.75;67.86
67015;BME280;1033;52.560;13.374;2023-04-26T05:12:06;100914.13;;;7.40;65.83
67015;BME280;1033;52.560;13.374;2023-04-26T05:14:35;100908.63;;;7.11;66.16
67015;BME280;1033;52.560;13.374;2023-04-26T05:17:04;100917.09;;;5.99;70.24
67015;BME280;1033;52.560;13.374;2023-04-26T05:19:33;100907.72;;;5.14;74.26
67015;BME280;1033;52.560;13.374;2023-04-26T05:22:03;100917.97;;;5.03;75.49
67015;BME280;1033;52.560;13.374;2023-04-26T05:24:35;100916.88;;;4.79;77.05
67015;BME280;1033;52.560;13.374;2023-04-26T05:27:04;100929.44;;;4.71;77.71
67015;BME280;1033;52.560;13.374;2023-04-26T05:29:43;100928.31;;;4.90;77.53
67015;BME280;1033;52.560;13.374;2023-04-26T05:32:48;100924.63;;;4.91;77.65
67015;BME280;1033;52.560;13.374;2023-04-26T05:36:04;100928.16;;;4.99;77.27
67015;BME280;1033;52.560;13.374;2023-04-26T05:38:34;100928.34;;;5.06;76.37
67015;BME280;1033;52.560;13.374;2023-04-26T05:41:06;100931.53;;;5.01;77.06
67015;BME280;1033;52.560;13.374;2023-04-26T05:43:35;100930.72;;;5.17;76.67
67015;BME280;1033;52.560;13.374;2023-04-26T05:46:05;100933.72;;;5.38;76.29
67015;BME280;1033;52.560;13.374;2023-04-26T05:48:34;100937.41;;;5.21;76.24
67015;BME280;1033;52.560;13.374;2023-04-26T05:51:04;100929.19;;;5.31;76.29
67015;BME280;1033;52.560;13.374;2023-04-26T05:53:34;100938.25;;;5.30;76.48
67015;BME280;1033;52.560;13.374;2023-04-26T05:56:05;100942.09;;;5.43;75.69
67015;BME280;1033;52.560;13.374;2023-04-26T05:58:35;100934.06;;;5.51;75.36
67015;BME280;1033;52.560;13.374;2023-04-26T06:01:04;100938.25;;;5.54;75.34
67015;BME280;1033;52.560;13.374;2023-04-26T06:03:34;100931.03;;;5.62;74.88
67015;BME280;1033;52.560;13.374;2023-04-26T06:06:12;100943.97;;;5.59;74.89
67015;BME280;1033;52.560;13.374;2023-04-26T06:08:42;100945.63;;;5.84;74.37
67015;BME280;1033;52.560;13.374;2023-04-26T06:11:13;100951.50;;;5.88;73.90
67015;BME280;1033;52.560;13.374;2023-04-26T06:13:42;100951.16;;;5.83;73.88
67015;BME280;1033;52.560;13.374;2023-04-26T06:16:12;100951.69;;;5.94;73.58
67015;BME280;1033;52.560;13.374;2023-04-26T06:18:42;100949.31;;;5.99;73.25
67015;BME280;1033;52.560;13.374;2023-04-26T06:21:12;100951.09;;;6.23;72.48
67015;BME280;1033;52.560;13.374;2023-04-26T06:27:09;100957.16;;;6.17;72.19
67015;BME280;1033;52.560;13.374;2023-04-26T06:29:41;100946.47;;;6.48;71.44
67015;BME280;1033;52.560;13.374;2023-04-26T06:32:10;100949.91;;;6.65;70.65
67015;BME280;1033;52.560;13.374;2023-04-26T06:34:39;100949.81;;;7.12;70.46
67015;BME280;1033;52.560;13.374;2023-04-26T06:37:11;100947.63;;;6.84;68.91
67015;BME280;1033;52.560;13.374;2023-04-26T06:39:42;100954.59;;;6.71;69.51
67015;BME280;1033;52.560;13.374;2023-04-26T06:42:14;100958.19;;;6.63;69.60
67015;BME280;1033;52.560;13.374;2023-04-26T06:45:00;100961.09;;;7.07;68.75
67015;BME280;1033;52.560;13.374;2023-04-26T06:47:32;100961.44;;;6.81;68.62
67015;BME280;1033;52.560;13.374;2023-04-26T06:50:02;100962.00;;;6.69;69.20
67015;BME280;1033;52.560;13.374;2023-04-26T06:52:32;100957.03;;;6.58;69.73
67015;BME280;1033;52.560;13.374;2023-04-26T06:55:02;100963.78;;;7.15;68.57
67015;BME280;1033;52.560;13.374;2023-04-26T06:57:32;100963.00;;;7.07;67.89
67015;BME280;1033;52.560;13.374;2023-04-26T07:00:02;100963.16;;;7.05;68.27
67015;BME280;1033;52.560;13.374;2023-04-26T07:02:31;100960.59;;;7.34;67.20
67015;BME280;1033;52.560;13.374;2023-04-26T07:05:00;100958.59;;;7.51;66.67
67015;BME280;1033;52.560;13.374;2023-04-26T07:07:30;100958.66;;;7.66;66.31
67015;BME280;1033;52.560;13.374;2023-04-26T07:09:59;100961.13;;;7.53;66.10
67015;BME280;1033;52.560;13.374;2023-04-26T07:12:28;100963.16;;;7.51;65.43
67015;BME280;1033;52.560;13.374;2023-04-26T07:14:59;100964.91;;;7.81;64.15
67015;BME280;1033;52.560;13.374;2023-04-26T07:17:28;100977.22;;;7.61;65.18
67015;BME280;1033;52.560;13.374;2023-04-26T07:19:57;100961.06;;;7.61;65.05
67015;BME280;1033;52.560;13.374;2023-04-26T07:22:26;100961.53;;;8.02;63.40
67015;BME280;1033;52.560;13.374;2023-04-26T07:24:55;100979.94;;;7.75;63.74
67015;BME280;1033;52.560;13.374;2023-04-26T07:27:24;100975.47;;;8.05;64.05
67015;BME280;1033;52.560;13.374;2023-04-26T07:29:54;100973.59;;;7.91;63.29
67015;BME280;1033;52.560;13.374;2023-04-26T07:32:25;100968.34;;;8.12;63.09
67015;BME280;1033;52.560;13.374;2023-04-26T07:34:54;100977.22;;;8.36;62.09
67015;BME280;1033;52.560;13.374;2023-04-26T07:37:24;100977.59;;;8.33;61.85
67015;BME280;1033;52.560;13.374;2023-04-26T07:39:53;100975.13;;;8.52;61.63
67015;BME280;1033;52.560;13.374;2023-04-26T07:42:24;100980.63;;;8.59;60.76
67015;BME280;1033;52.560;13.374;2023-04-26T07:44:53;100974.50;;;8.36;60.51
67015;BME280;1033;52.560;13.374;2023-04-26T07:47:30;100979.25;;;8.48;59.12
67015;BME280;1033;52.560;13.374;2023-04-26T07:50:05;100985.94;;;8.38;59.69
67015;BME280;1033;52.560;13.374;2023-04-26T07:52:35;100989.53;;;8.89;57.61
67015;BME280;1033;52.560;13.374;2023-04-26T07:55:05;100991.63;;;9.08;57.73
67015;BME280;1033;52.560;13.374;2023-04-26T07:57:39;100991.47;;;9.31;55.98
67015;BME280;1033;52.560;13.374;2023-04-26T08:00:09;100982.88;;;9.42;55.60
67015;BME280;1033;52.560;13.374;2023-04-26T08:02:40;100992.00;;;9.41;56.11
67015;BME280;1033;52.560;13.374;2023-04-26T08:05:12;100988.75;;;9.31;56.55
67015;BME280;1033;52.560;13.374;2023-04-26T08:07:42;100998.91;;;8.93;57.30
67015;BME280;1033;52.560;13.374;2023-04-26T08:10:39;100994.19;;;8.21;57.85
67015;BME280;1033;52.560;13.374;2023-04-26T08:13:08;100994.13;;;8.59;58.65
67015;BME280;1033;52.560;13.374;2023-04-26T08:15:37;100997.66;;;8.74;57.95
67015;BME280;1033;52.560;13.374;2023-04-26T08:18:07;100990.94;;;8.85;58.42
67015;BME280;1033;52.560;13.374;2023-04-26T08:20:37;100997.50;;;8.97;57.28
67015;BME280;1033;52.560;13.374;2023-04-26T08:23:07;100999.75;;;8.93;56.28
67015;BME280;1033;52.560;13.374;2023-04-26T08:25:36;100994.50;;;9.06;54.82
67015;BME280;1033;52.560;13.374;2023-04-26T08:28:05;101006.16;;;9.43;54.33
67015;BME280;1033;52.560;13.374;2023-04-26T08:30:35;100998.28;;;9.90;53.42
67015;BME280;1033;52.560;13.374;2023-04-26T08:33:04;100995.78;;;10.17;51.77
67015;BME280;1033;52.560;13.374;2023-04-26T08:35:36;101004.97;;;9.94;51.78
67015;BME280;1033;52.560;13.374;2023-04-26T08:38:05;100996.09;;;10.07;51.47
67015;BME280;1033;52.560;13.374;2023-04-26T08:40:34;101000.84;;;9.98;51.30
67015;BME280;1033;52.560;13.374;2023-04-26T08:43:04;101010.78;;;10.47;52.54
67015;BME280;1033;52.560;13.374;2023-04-26T08:45:34;100996.59;;;9.89;54.69
67015;BME280;1033;52.560;13.374;2023-04-26T08:48:10;100999.56;;;9.73;55.65
67015;BME280;1033;52.560;13.374;2023-04-26T08:50:46;101002.16;;;9.81;54.76
67015;BME280;1033;52.560;13.374;2023-04-26T08:53:16;101006.13;;;10.07;52.42
67015;BME280;1033;52.560;13.374;2023-04-26T08:55:47;100998.69;;;9.87;51.48
67015;BME280;1033;52.560;13.374;2023-04-26T08:58:17;101010.69;;;9.85;51.65
67015;BME280;1033;52.560;13.374;2023-04-26T09:00:50;101004.72;;;9.47;52.56
67015;BME280;1033;52.560;13.374;2023-04-26T09:03:22;101004.69;;;9.26;53.20
67015;BME280;1033;52.560;13.374;2023-04-26T09:05:55;101012.66;;;9.12;53.91
67015;BME280;1033;52.560;13.374;2023-04-26T09:08:24;101016.53;;;8.74;52.84
67015;BME280;1033;52.560;13.374;2023-04-26T09:10:54;101012.16;;;8.58;53.68
67015;BME280;1033;52.560;13.374;2023-04-26T09:13:27;101013.09;;;8.36;54.01
67015;BME280;1033;52.560;13.374;2023-04-26T09:15:57;101021.38;;;8.64;55.18
67015;BME280;1033;52.560;13.374;2023-04-26T09:18:29;101010.44;;;9.01;53.40
67015;BME280;1033;52.560;13.374;2023-04-26T09:21:06;101007.88;;;9.50;52.09
67015;BME280;1033;52.560;13.374;2023-04-26T09:23:36;101007.59;;;9.88;51.30
67015;BME280;1033;52.560;13.374;2023-04-26T09:26:24;101007.94;;;9.78;51.27
67015;BME280;1033;52.560;13.374;2023-04-26T09:29:11;101006.41;;;9.69;50.98
67015;BME280;1033;52.560;13.374;2023-04-26T09:31:42;101006.19;;;8.78;53.73
67015;BME280;1033;52.560;13.374;2023-04-26T09:34:16;101017.94;;;8.70;52.63
67015;BME280;1033;52.560;13.374;2023-04-26T09:36:51;101013.00;;;8.59;53.23
67015;BME280;1033;52.560;13.374;2023-04-26T09:39:33;101010.41;;;8.80;53.27
67015;BME280;1033;52.560;13.374;2023-04-26T09:42:16;101007.75;;;9.01;51.33
67015;BME280;1033;52.560;13.374;2023-04-26T09:44:47;101006.47;;;9.33;51.38
67015;BME280;1033;52.560;13.374;2023-04-26T09:47:22;101023.56;;;9.04;52.31
67015;BME280;1033;52.560;13.374;2023-04-26T09:49:51;101005.63;;;8.82;52.72
67015;BME280;1033;52.560;13.374;2023-04-26T09:52:22;101012.13;;;8.88;53.19
67015;BME280;1033;52.560;13.374;2023-04-26T09:54:52;101008.28;;;9.11;52.82
67015;BME280;1033;52.560;13.374;2023-04-26T09:57:22;101005.75;;;9.46;52.35
67015;BME280;1033;52.560;13.374;2023-04-26T09:59:52;101011.25;;;9.16;52.74
67015;BME280;1033;52.560;13.374;2023-04-26T10:02:25;101014.66;;;9.25;52.39
67015;BME280;1033;52.560;13.374;2023-04-26T10:04:56;101017.44;;;9.32;51.54
67015;BME280;1033;52.560;13.374;2023-04-26T10:07:28;101014.66;;;9.25;52.07
67015;BME280;1033;52.560;13.374;2023-04-26T10:09:58;101033.28;;;9.56;50.76
67015;BME280;1033;52.560;13.374;2023-04-26T10:12:28;101018.00;;;8.91;48.96
67015;BME280;1033;52.560;13.374;2023-04-26T10:14:58;101018.47;;;8.95;49.11
67015;BME280;1033;52.560;13.374;2023-04-26T10:17:28;101012.69;;;8.98;49.75
67015;BME280;1033;52.560;13.374;2023-04-26T10:20:00;101017.56;;;9.45;49.61
67015;BME280;1033;52.560;13.374;2023-04-26T10:22:38;101020.50;;;10.14;48.36
67015;BME280;1033;52.560;13.374;2023-04-26T10:25:09;101025.56;;;9.74;49.49
67015;BME280;1033;52.560;13.374;2023-04-26T10:27:56;101024.25;;;9.28;50.12
67015;BME280;1033;52.560;13.374;2023-04-26T10:30:25;101029.22;;;9.45;50.23
67015;BME280;1033;52.560;13.374;2023-04-26T10:33:22;101040.59;;;9.41;49.65
67015;BME280;1033;52.560;13.374;2023-04-26T10:36:10;101021.28;;;8.72;51.40
67015;BME280;1033;52.560;13.374;2023-04-26T10:41:31;101020.81;;;9.76;50.50
67015;BME280;1033;52.560;13.374;2023-04-26T10:44:37;101024.78;;;10.23;49.74
67015;BME280;1033;52.560;13.374;2023-04-26T10:47:19;101020.59;;;9.99;49.36
67015;BME280;1033;52.560;13.374;2023-04-26T10:49:49;101024.03;;;10.35;48.71
67015;BME280;1033;52.560;13.374;2023-04-26T10:52:19;101007.19;;;10.12;48.74
67015;BME280;1033;52.560;13.374;2023-04-26T10:54:55;101020.81;;;10.53;48.05
67015;BME280;1033;52.560;13.374;2023-04-26T10:57:49;101020.34;;;10.43;48.08
67015;BME280;1033;52.560;13.374;2023-04-26T11:00:29;101013.16;;;10.29;47.02
67015;BME280;1033;52.560;13.374;2023-04-26T11:03:03;101026.59;;;10.43;47.35
67015;BME280;1033;52.560;13.374;2023-04-26T11:05:52;101028.91;;;10.19;47.60
67015;BME280;1033;52.560;13.374;2023-04-26T11:08:26;101025.41;;;10.25;46.53
67015;BME280;1033;52.560;13.374;2023-04-26T11:11:05;101019.75;;;10.20;46.87
67015;BME280;1033;52.560;13.374;2023-04-26T11:13:38;101028.44;;;10.15;46.77
67015;BME280;1033;52.560;13.374;2023-04-26T11:16:09;101019.06;;;10.39;46.77
67015;BME280;1033;52.560;13.374;2023-04-26T11:19:08;101024.59;;;10.59;44.10
67015;BME280;1033;52.560;13.374;2023-04-26T11:21:37;101020.59;;;10.20;44.75
67015;BME280;1033;52.560;13.374;2023-04-26T11:24:07;101016.78;;;10.36;44.71
67015;BME280;1033;52.560;13.374;2023-04-26T11:26:36;101016.47;;;11.00;44.19
67015;BME280;1033;52.560;13.374;2023-04-26T11:29:08;101010.25;;;11.06;44.26
67015;BME280;1033;52.560;13.374;2023-04-26T11:31:40;101025.06;;;11.10;44.17
67015;BME280;1033;52.560;13.374;2023-04-26T11:34:09;101033.47;;;10.80;42.67
67015;BME280;1033;52.560;13.374;2023-04-26T11:36:38;101016.59;;;10.44;43.69
67015;BME280;1033;52.560;13.374;2023-04-26T11:39:09;101022.41;;;10.41;43.41
67015;BME280;1033;52.560;13.374;2023-04-26T11:41:40;101021.28;;;10.08;43.81
67015;BME280;1033;52.560;13.374;2023-04-26T11:44:12;101015.47;;;10.66;44.10
67015;BME280;1033;52.560;13.374;2023-04-26T11:46:41;101022.16;;;10.70;44.01
67015;BME280;1033;52.560;13.374;2023-04-26T11:49:11;101022.13;;;11.05;44.20
67015;BME280;1033;52.560;13.374;2023-04-26T11:51:40;101027.16;;;11.08;41.70
67015;BME280;1033;52.560;13.374;2023-04-26T11:54:26;101013.75;;;11.60;41.52
67015;BME280;1033;52.560;13.374;2023-04-26T11:56:56;101009.66;;;12.04;40.63
67015;BME280;1033;52.560;13.374;2023-04-26T11:59:28;101024.16;;;12.69;40.44
67015;BME280;1033;52.560;13.374;2023-04-26T12:01:58;101027.06;;;12.74;39.51
67015;BME280;1033;52.560;13.374;2023-04-26T12:04:29;101033.28;;;12.94;39.63
67015;BME280;1033;52.560;13.374;2023-04-26T12:06:58;101029.09;;;12.98;39.89
67015;BME280;1033;52.560;13.374;2023-04-26T12:09:29;101027.50;;;12.71;40.04
67015;BME280;1033;52.560;13.374;2023-04-26T12:11:59;101029.03;;;11.74;41.52
67015;BME280;1033;52.560;13.374;2023-04-26T12:14:33;101029.78;;;10.95;43.66
67015;BME280;1033;52.560;13.374;2023-04-26T12:17:05;101025.19;;;10.95;43.62
67015;BME280;1033;52.560;13.374;2023-04-26T12:19:34;101021.84;;;11.41;44.34
67015;BME280;1033;52.560;13.374;2023-04-26T12:22:05;101023.00;;;11.99;42.73
67015;BME280;1033;52.560;13.374;2023-04-26T12:24:35;101028.41;;;11.92;43.28
67015;BME280;1033;52.560;13.374;2023-04-26T12:27:05;101023.25;;;11.30;43.58
67015;BME280;1033;52.560;13.374;2023-04-26T12:29:36;101032.25;;;10.89;44.59
67015;BME280;1033;52.560;13.374;2023-04-26T12:32:05;101040.97;;;10.85;44.84
67015;BME280;1033;52.560;13.374;2023-04-26T12:34:34;101041.44;;;10.54;45.88
67015;BME280;1033;52.560;13.374;2023-04-26T12:37:03;101032.97;;;10.70;45.92
67015;BME280;1033;52.560;13.374;2023-04-26T12:39:33;101032.66;;;10.86;46.75
67015;BME280;1033;52.560;13.374;2023-04-26T12:42:02;101026.03;;;10.96;45.42
67015;BME280;1033;52.560;13.374;2023-04-26T12:44:35;101038.75;;;11.49;45.17
67015;BME280;1033;52.560;13.374;2023-04-26T12:47:04;101033.63;;;12.20;43.88
67015;BME280;1033;52.560;13.374;2023-04-26T12:49:33;101032.41;;;12.09;41.78
67015;BME280;1033;52.560;13.374;2023-04-26T12:52:02;101031.34;;;12.43;41.68
67015;BME280;1033;52.560;13.374;2023-04-26T12:54:31;101025.63;;;12.71;41.43
67015;BME280;1033;52.560;13.374;2023-04-26T12:57:00;101027.94;;;12.54;41.34
67015;BME280;1033;52.560;13.374;2023-04-26T12:59:44;101026.97;;;13.13;40.79
67015;BME280;1033;52.560;13.374;2023-04-26T13:02:13;101032.44;;;13.00;40.69
67015;BME280;1033;52.560;13.374;2023-04-26T13:04:43;101026.34;;;12.07;41.26
67015;BME280;1033;52.560;13.374;2023-04-26T13:07:12;101030.28;;;12.11;41.37
67015;BME280;1033;52.560;13.374;2023-04-26T13:09:41;101023.22;;;12.04;42.45
67015;BME280;1033;52.560;13.374;2023-04-26T13:12:10;101031.75;;;12.07;41.28
67015;BME280;1033;52.560;13.374;2023-04-26T13:14:40;101031.13;;;12.32;40.76
67015;BME280;1033;52.560;13.374;2023-04-26T13:17:11;101028.97;;;11.68;41.54
67015;BME280;1033;52.560;13.374;2023-04-26T13:19:40;101027.47;;;11.52;41.89
67015;BME280;1033;52.560;13.374;2023-04-26T13:22:10;101029.66;;;11.83;42.46
67015;BME280;1033;52.560;13.374;2023-04-26T13:24:39;101031.13;;;11.86;40.79
67015;BME280;1033;52.560;13.374;2023-04-26T13:27:11;101035.66;;;11.05;41.61
67015;BME280;1033;52.560;13.374;2023-04-26T13:29:40;101032.19;;;10.76;42.85